Time;durP1;ratioP1;P1;durP2;ratioP2;P2;SDS_P1;SDS_P2;PMS_P1;PMS_P2;Temp;Humidity;BMP_temperature;BMP_pressure;BME280_temperature;BME280_humidity;BME280_pressure;Samples;Min_cycle;Max_cycle;Signal;HPM_P1;HPM_P2
2021/12/05 00:22:54;;;;;;;18.57;11.77;;;12.80;75.60;;;;;;10363766;28;20317;-86
2021/12/05 00:39:10;;;;;;;25.97;14.20;;;13.00;74.10;;;;;;10360806;28;20227;-86
2021/12/05 00:44:36;;;;;;;19.40;12.47;;;13.00;73.40;;;;;;10364455;28;20243;-86
2021/12/05 00:49:59;;;;;;;25.17;14.47;;;12.90;73.30;;;;;;10330746;28;20259;-86
2021/12/05 00:55:29;;;;;;;19.63;13.33;;;13.20;69.50;;;;;;10343147;28;20275;-86
2021/12/05 01:16:18;;;;;;;23.87;13.27;;;12.90;70.70;;;;;;10350227;28;20286;-87
2021/12/05 01:21:24;;;;;;;17.00;10.50;;;12.90;73.60;;;;;;10361821;28;20309;-86
2021/12/05 01:26:45;;;;;;;30.60;18.77;;;13.00;73.30;;;;;;10365228;28;20235;-87
2021/12/05 01:37:53;;;;;;;16.40;10.60;;;12.70;73.70;;;;;;10358478;28;20255;-86
2021/12/05 02:09:24;;;;;;;17.50;10.50;;;13.20;72.20;;;;;;10370029;28;20239;-88
2021/12/05 02:31:35;;;;;;;32.07;16.90;;;13.20;71.80;;;;;;10365974;28;20681;-87
2021/12/05 02:41:22;;;;;;;13.73;10.17;;;12.60;73.50;;;;;;10368831;28;20313;-87
2021/12/05 02:46:26;;;;;;;20.47;12.90;;;13.20;72.20;;;;;;10368888;28;20259;-87
2021/12/05 02:51:33;;;;;;;17.77;11.47;;;13.30;71.30;;;;;;10356205;28;20694;-87
2021/12/05 02:56:41;;;;;;;18.00;10.47;;;13.30;71.50;;;;;;10328616;28;20742;-87
2021/12/05 03:01:50;;;;;;;18.67;10.83;;;13.20;71.60;;;;;;10365099;28;20235;-88
2021/12/05 03:06:55;;;;;;;15.80;10.77;;;13.50;71.20;;;;;;10334811;28;20225;-87
2021/12/05 03:12:00;;;;;;;20.20;11.93;;;13.50;70.90;;;;;;10341123;28;20314;-87
2021/12/05 03:17:05;;;;;;;21.93;13.00;;;13.30;71.60;;;;;;10363055;28;20239;-87
2021/12/05 03:22:08;;;;;;;15.73;10.70;;;13.20;70.00;;;;;;10326232;28;20272;-87
2021/12/05 03:27:11;;;;;;;24.40;13.40;;;13.30;71.10;;;;;;10333993;28;20287;-88
2021/12/05 03:32:14;;;;;;;19.30;10.73;;;13.20;69.70;;;;;;10366306;28;20310;-87
2021/12/05 03:37:20;;;;;;;24.13;14.07;;;12.80;72.10;;;;;;10366123;28;20248;-87
2021/12/05 03:42:25;;;;;;;24.77;13.73;;;13.20;67.90;;;;;;10350161;28;20624;-88
2021/12/05 03:47:30;;;;;;;19.03;11.50;;;12.90;71.40;;;;;;10340502;28;20336;-87
2021/12/05 03:52:35;;;;;;;18.40;11.33;;;13.30;70.80;;;;;;10331481;28;20995;-87
2021/12/05 03:57:40;;;;;;;22.80;12.67;;;13.30;71.20;;;;;;10366006;28;20240;-87
2021/12/05 04:02:44;;;;;;;27.53;15.80;;;13.30;70.00;;;;;;10365148;28;20236;-88
2021/12/05 04:07:49;;;;;;;17.90;10.90;;;13.20;69.30;;;;;;10381340;28;20236;-88
2021/12/05 04:12:54;;;;;;;18.10;11.50;;;13.30;71.20;;;;;;10349931;28;20713;-87
2021/12/05 04:17:58;;;;;;;22.10;12.37;;;13.20;70.70;;;;;;10323910;28;20295;-88
2021/12/05 04:23:06;;;;;;;19.27;11.83;;;13.30;70.60;;;;;;10362538;28;20292;-88
2021/12/05 04:28:09;;;;;;;17.73;11.13;;;13.10;71.30;;;;;;10365513;28;20318;-88
2021/12/05 04:33:12;;;;;;;17.87;10.93;;;13.10;71.50;;;;;;10365335;28;20272;-88
2021/12/05 04:38:17;;;;;;;23.70;12.53;;;13.10;71.50;;;;;;10364170;28;20220;-88
2021/12/05 04:43:20;;;;;;;17.27;11.17;;;12.90;71.50;;;;;;10363540;28;20236;-86
2021/12/05 04:48:26;;;;;;;20.67;11.73;;;13.10;71.80;;;;;;10363691;28;20219;-87
2021/12/05 04:53:30;;;;;;;16.47;10.23;;;12.90;71.50;;;;;;10363995;28;20737;-87
2021/12/05 04:58:35;;;;;;;16.77;10.53;;;12.80;72.40;;;;;;10361541;28;20223;-87
2021/12/05 05:03:38;;;;;;;20.13;11.20;;;12.90;72.20;;;;;;10362939;28;20228;-87
2021/12/05 05:08:43;;;;;;;17.80;12.10;;;13.10;71.90;;;;;;10362100;28;20220;-87
2021/12/05 05:13:47;;;;;;;18.93;11.40;;;12.90;72.10;;;;;;10357751;28;20305;-87
2021/12/05 05:18:58;;;;;;;20.27;12.50;;;12.90;72.10;;;;;;10361933;28;20256;-87
2021/12/05 05:24:38;;;;;;;23.27;14.87;;;12.80;71.90;;;;;;10360125;28;20227;-87
2021/12/05 05:30:03;;;;;;;20.50;11.53;;;12.80;71.00;;;;;;10397615;28;20235;-87
2021/12/05 05:46:09;;;;;;;14.87;10.20;;;13.10;71.40;;;;;;10281162;28;20365;-87
2021/12/05 05:51:11;;;;;;;29.70;16.57;;;13.00;71.90;;;;;;10285009;28;20453;-87
2021/12/05 05:56:19;;;;;;;22.70;14.87;;;13.00;70.80;;;;;;10284647;28;20261;-87
2021/12/05 06:01:45;;;;;;;16.20;10.07;;;13.00;66.40;;;;;;10284201;28;20245;-86
2021/12/05 06:06:45;;;;;;;21.30;11.90;;;13.00;71.20;;;;;;10284802;28;20225;-87
2021/12/05 06:11:48;;;;;;;19.30;11.20;;;13.30;71.00;;;;;;10273064;28;20233;-87
2021/12/05 06:16:51;;;;;;;17.33;11.10;;;13.30;71.00;;;;;;10331574;28;20334;-87
2021/12/05 06:21:53;;;;;;;14.53;10.97;;;13.30;70.90;;;;;;10362922;28;20338;-87
2021/12/05 06:26:58;;;;;;;20.07;11.53;;;13.30;71.00;;;;;;10366508;28;20240;-87
2021/12/05 06:32:22;;;;;;;16.90;10.73;;;13.40;70.60;;;;;;10353278;28;20259;-87
2021/12/05 06:47:50;;;;;;;26.60;15.17;;;13.40;70.40;;;;;;10365609;28;20258;-87
2021/12/05 06:52:52;;;;;;;20.50;11.73;;;13.30;69.20;;;;;;10367713;28;20717;-87
2021/12/05 06:57:55;;;;;;;19.87;11.30;;;13.40;70.30;;;;;;10367471;28;20240;-87
2021/12/05 07:02:58;;;;;;;17.83;11.13;;;13.30;70.70;;;;;;10359782;28;20764;-86
2021/12/05 07:08:02;;;;;;;21.80;13.50;;;13.10;71.50;;;;;;10368301;28;20263;-87
2021/12/05 07:44:36;;;;;;;18.60;11.87;;;13.30;69.90;;;;;;10365987;28;20257;-86
2021/12/05 07:49:43;;;;;;;21.77;13.13;;;13.20;71.20;;;;;;10364281;28;20266;-86
2021/12/05 07:54:52;;;;;;;20.93;12.40;;;13.20;70.80;;;;;;10366283;28;20252;-86
2021/12/05 08:00:11;;;;;;;16.17;10.83;;;13.10;71.30;;;;;;10363729;28;20258;-87
2021/12/05 08:16:02;;;;;;;19.67;12.50;;;13.30;70.90;;;;;;10365422;28;20337;-86
2021/12/05 08:21:07;;;;;;;17.27;11.03;;;13.40;70.10;;;;;;10363288;28;20271;-86
2021/12/05 08:26:16;;;;;;;17.07;9.97;;;13.30;70.80;;;;;;10357710;28;20286;-86
2021/12/05 09:25:05;;;;;;;18.23;12.07;;;13.40;70.40;;;;;;10371172;28;20266;-86
2021/12/05 10:02:42;;;;;;;51.00;32.13;;;11.40;62.10;;;;;;10363106;28;20233;-87
2021/12/05 10:40:12;;;;;;;24.73;13.97;;;13.30;71.70;;;;;;10367913;28;20243;-86
2021/12/05 10:45:29;;;;;;;23.53;16.33;;;13.50;70.80;;;;;;10016171;28;10000320;-85
2021/12/05 10:50:42;;;;;;;17.77;11.97;;;13.60;69.70;;;;;;10321148;28;20320;-86
2021/12/05 10:55:45;;;;;;;19.30;12.87;;;13.80;70.10;;;;;;10326603;28;20304;-86
2021/12/05 11:00:47;;;;;;;19.50;13.10;;;13.50;70.80;;;;;;10345347;28;20865;-86
2021/12/05 11:05:50;;;;;;;41.03;26.83;;;13.70;70.10;;;;;;10387351;28;20227;-86
2021/12/05 11:11:10;;;;;;;25.27;16.43;;;13.40;66.40;;;;;;10395661;28;20254;-86
2021/12/05 11:16:33;;;;;;;21.30;12.30;;;13.70;68.60;;;;;;10387099;28;20232;-87
2021/12/05 11:21:45;;;;;;;21.20;14.23;;;13.70;70.40;;;;;;10390317;28;20297;-87
2021/12/05 11:27:06;;;;;;;19.13;13.20;;;13.70;70.30;;;;;;10365122;28;20247;-88
2021/12/05 11:32:14;;;;;;;22.90;15.57;;;13.30;67.90;;;;;;10384829;28;20224;-87
2021/12/05 11:37:17;;;;;;;17.37;12.30;;;13.50;70.80;;;;;;10368970;28;20252;-87
2021/12/05 11:42:21;;;;;;;20.03;12.10;;;13.40;70.90;;;;;;10363976;28;20221;-87
2021/12/05 11:47:24;;;;;;;49.70;31.80;;;13.40;71.60;;;;;;10364261;28;20232;-89
2021/12/05 11:52:26;;;;;;;41.43;25.03;;;11.40;63.40;;;;;;10365195;28;20287;-89
2021/12/05 11:57:29;;;;;;;48.17;28.43;;;12.20;72.00;;;;;;10328655;28;20350;-91
2021/12/05 12:02:44;;;;;;;39.00;26.40;;;12.20;68.40;;;;;;10341513;28;20239;-87
2021/12/05 12:07:59;;;;;;;50.17;27.37;;;12.50;67.50;;;;;;10324719;28;20232;-86
2021/12/05 12:13:15;;;;;;;43.33;25.80;;;12.30;66.10;;;;;;10326129;28;20821;-86
2021/12/05 12:18:25;;;;;;;39.50;23.20;;;12.80;65.60;;;;;;10325587;28;20261;-86
2021/12/05 12:23:28;;;;;;;41.23;24.80;;;12.90;65.10;;;;;;10324046;28;20256;-86
2021/12/05 12:28:32;;;;;;;38.77;23.63;;;12.60;65.10;;;;;;10323759;28;20228;-85
2021/12/05 12:34:08;;;;;;;43.27;26.13;;;12.60;67.00;;;;;;10351781;28;20233;-86
2021/12/05 12:39:18;;;;;;;37.90;24.37;;;12.50;66.90;;;;;;10398330;28;20271;-90
2021/12/05 12:44:20;;;;;;;40.27;23.87;;;12.10;68.50;;;;;;10387789;28;20293;-89
2021/12/05 12:49:42;;;;;;;46.97;28.80;;;12.30;69.20;;;;;;10359207;28;20674;-89
2021/12/05 12:54:51;;;;;;;40.13;24.10;;;11.90;69.50;;;;;;10363468;28;20669;-87
2021/12/05 13:00:20;;;;;;;47.43;28.97;;;11.80;71.10;;;;;;10329013;28;20220;-87
2021/12/05 13:07:21;;;;;;;40.93;25.37;;;12.40;66.10;;;;;;10349887;28;20293;-87
2021/12/05 13:11:21;;;;;;;41.20;22.80;;;12.80;66.30;;;;;;10366411;28;20235;-87
2021/12/05 13:16:31;;;;;;;36.80;23.20;;;12.90;66.30;;;;;;10341916;28;20260;-87
2021/12/05 13:21:42;;;;;;;35.23;21.83;;;12.90;65.90;;;;;;10361256;28;20235;-87
2021/12/05 13:26:45;;;;;;;36.60;21.60;;;13.00;66.70;;;;;;10339126;28;20679;-87
2021/12/05 13:32:02;;;;;;;35.77;22.50;;;13.20;66.70;;;;;;10352074;28;20282;-87
2021/12/05 13:37:08;;;;;;;35.23;21.47;;;13.10;66.60;;;;;;10363194;28;20342;-87
2021/12/05 13:42:18;;;;;;;54.20;33.73;;;13.30;66.50;;;;;;10362990;28;20220;-87
2021/12/05 13:47:27;;;;;;;38.63;23.20;;;13.20;65.00;;;;;;9668562;28;10000677;-87
2021/12/05 13:52:38;;;;;;;34.67;20.83;;;13.00;67.10;;;;;;10352852;28;20236;-87
2021/12/05 13:58:19;;;;;;;46.23;29.33;;;13.20;67.40;;;;;;10322564;28;20390;-89
2021/12/05 14:03:39;;;;;;;34.67;20.97;;;12.70;68.10;;;;;;10363970;28;20783;-88
2021/12/05 14:08:42;;;;;;;39.43;25.90;;;12.90;68.20;;;;;;10338959;28;20224;-86
2021/12/05 14:13:45;;;;;;;35.30;22.23;;;12.70;65.70;;;;;;10355547;28;20736;-88
2021/12/05 14:18:54;;;;;;;33.90;19.80;;;12.30;68.60;;;;;;10362274;28;20322;-88
2021/12/05 14:23:58;;;;;;;37.73;20.87;;;11.40;72.40;;;;;;10339076;28;20335;-87
2021/12/05 14:29:05;;;;;;;42.63;25.17;;;11.20;73.60;;;;;;10336887;28;20235;-88
2021/12/05 14:34:11;;;;;;;29.30;17.70;;;10.70;71.70;;;;;;10343104;28;20318;-88
2021/12/05 14:39:22;;;;;;;49.53;29.03;;;11.00;74.70;;;;;;10356380;28;20234;-87
2021/12/05 14:44:27;;;;;;;75.27;43.87;;;11.60;71.60;;;;;;10362870;28;20243;-88
2021/12/05 14:49:35;;;;;;;57.03;33.53;;;10.50;68.50;;;;;;10369405;28;20301;-86
2021/12/05 14:54:40;;;;;;;41.87;26.30;;;10.60;73.20;;;;;;10354483;28;20633;-87
2021/12/05 14:59:45;;;;;;;45.97;27.50;;;11.10;75.00;;;;;;10359965;28;20640;-87
2021/12/05 15:04:53;;;;;;;36.37;23.77;;;11.30;73.60;;;;;;10381791;28;20335;-86
2021/12/05 15:10:00;;;;;;;33.13;19.43;;;11.60;73.70;;;;;;10367327;28;20259;-87
2021/12/05 15:15:11;;;;;;;31.40;18.63;;;11.50;74.00;;;;;;10347070;28;20319;-87
2021/12/05 15:20:18;;;;;;;35.50;21.33;;;11.80;73.70;;;;;;10334939;28;20266;-86
2021/12/05 15:25:27;;;;;;;29.20;19.20;;;11.70;72.70;;;;;;10365516;28;20268;-87
2021/12/05 15:30:35;;;;;;;35.83;22.07;;;11.70;73.60;;;;;;10365855;28;20597;-87
2021/12/05 15:35:38;;;;;;;30.70;19.60;;;12.80;70.40;;;;;;10366008;28;20318;-87
2021/12/05 15:40:44;;;;;;;46.57;29.43;;;12.70;70.80;;;;;;10364465;28;20232;-85
2021/12/05 15:45:49;;;;;;;26.90;18.00;;;12.90;69.00;;;;;;10365778;28;20219;-84
2021/12/05 15:50:52;;;;;;;34.83;21.30;;;12.50;70.90;;;;;;10363637;28;20236;-84
2021/12/05 15:56:01;;;;;;;34.20;22.07;;;12.50;71.20;;;;;;10354161;28;20251;-84
2021/12/05 16:01:07;;;;;;;32.20;20.97;;;12.90;69.90;;;;;;10362746;28;20296;-85
2021/12/05 16:06:13;;;;;;;43.83;26.60;;;12.50;70.70;;;;;;10366174;28;20243;-85
2021/12/05 16:11:20;;;;;;;28.13;18.87;;;11.90;67.90;;;;;;10356244;28;20283;-84
2021/12/05 16:16:26;;;;;;;50.10;31.67;;;11.80;69.80;;;;;;10354134;28;20263;-84
2021/12/05 16:21:32;;;;;;;39.07;23.37;;;11.30;67.10;;;;;;10365234;28;20262;-84
2021/12/05 16:26:35;;;;;;;44.87;26.70;;;11.80;73.40;;;;;;10344036;28;20604;-83
2021/12/05 16:31:43;;;;;;;73.13;42.37;;;11.00;73.30;;;;;;10359052;28;20218;-84
2021/12/05 16:36:56;;;;;;;64.77;37.83;;;10.50;71.30;;;;;;10360793;28;20324;-84
2021/12/05 16:42:10;;;;;;;57.37;35.23;;;9.70;74.60;;;;;;10358798;28;20253;-84
2021/12/05 16:47:29;;;;;;;33.87;19.80;;;9.70;79.10;;;;;;10372225;28;20666;-84
2021/12/05 16:52:38;;;;;;;47.13;31.67;;;10.40;79.50;;;;;;10358917;28;20242;-84
2021/12/05 16:57:46;;;;;;;59.80;36.27;;;10.70;75.70;;;;;;10357643;28;20281;-84
2021/12/05 17:02:52;;;;;;;38.97;23.97;;;10.60;70.60;;;;;;10360415;28;20751;-84
2021/12/05 17:08:07;;;;;;;26.27;18.53;;;10.40;75.50;;;;;;10356769;28;20246;-84
2021/12/05 17:13:18;;;;;;;46.17;29.60;;;11.40;76.00;;;;;;10358193;28;20222;-84
2021/12/05 17:18:29;;;;;;;47.70;29.20;;;11.60;73.00;;;;;;10362033;28;20320;-84
2021/12/05 17:23:38;;;;;;;40.67;23.30;;;10.90;72.60;;;;;;10355331;28;20280;-85
2021/12/05 17:28:45;;;;;;;42.83;27.80;;;10.50;75.50;;;;;;10366295;28;20239;-85
2021/12/05 17:33:52;;;;;;;38.20;24.77;;;10.80;75.20;;;;;;10365832;28;20747;-85
2021/12/05 17:38:59;;;;;;;64.73;36.50;;;11.80;80.10;;;;;;10366259;28;20707;-84
2021/12/05 17:44:04;;;;;;;77.53;44.77;;;7.10;84.50;;;;;;10366910;28;20255;-85
2021/12/05 17:49:10;;;;;;;78.63;44.93;;;1.70;98.20;;;;;;10363361;28;20235;-85
2021/12/05 18:00:11;;;;;;;57.20;33.87;;;6.40;99.90;;;;;;10322487;28;20267;-85
2021/12/05 18:05:21;;;;;;;57.23;34.23;;;9.80;99.90;;;;;;10302342;28;20292;-85
2021/12/05 18:10:31;;;;;;;76.93;43.33;;;10.40;91.60;;;;;;10310320;28;20344;-85
2021/12/05 18:15:36;;;;;;;56.03;33.83;;;10.20;77.50;;;;;;10318407;23;20958;-85
2021/12/05 18:20:39;;;;;;;54.73;32.27;;;10.50;89.10;;;;;;10325553;23;20232;-85
2021/12/05 18:25:43;;;;;;;57.90;34.20;;;10.90;88.60;;;;;;10380154;28;20255;-85
2021/12/05 18:30:46;;;;;;;50.83;32.10;;;11.60;88.40;;;;;;10391615;28;20294;-85
2021/12/05 18:35:48;;;;;;;49.23;31.90;;;11.60;87.50;;;;;;10405524;28;20264;-85
2021/12/05 18:40:56;;;;;;;49.43;32.20;;;12.00;88.00;;;;;;10399024;28;20244;-85
2021/12/05 18:46:00;;;;;;;45.60;30.47;;;12.20;87.70;;;;;;10403317;28;20297;-85
2021/12/05 18:51:04;;;;;;;53.87;34.00;;;12.40;87.60;;;;;;10401294;28;20622;-85
2021/12/05 18:56:07;;;;;;;49.07;31.37;;;11.80;88.30;;;;;;10389438;28;20288;-85
2021/12/05 19:06:44;;;;;;;70.93;40.53;;;11.40;90.60;;;;;;10398978;28;20293;-86
2021/12/05 19:11:49;;;;;;;44.47;30.80;;;10.80;84.30;;;;;;10396042;28;20788;-85
2021/12/05 19:16:57;;;;;;;47.50;29.97;;;10.50;95.50;;;;;;10376529;28;20398;-85
2021/12/05 19:22:01;;;;;;;43.20;27.10;;;9.60;99.30;;;;;;10396229;28;20324;-85
2021/12/05 19:27:04;;;;;;;58.47;36.23;;;10.60;99.90;;;;;;10395662;28;21078;-84
2021/12/05 19:32:08;;;;;;;64.00;35.20;;;10.80;92.90;;;;;;10387915;28;20597;-84
2021/12/05 19:37:11;;;;;;;57.33;34.93;;;10.80;98.40;;;;;;10399039;28;20316;-85
2021/12/05 19:42:15;;;;;;;66.07;40.43;;;10.80;88.80;;;;;;10406566;28;20634;-85
2021/12/05 19:47:17;;;;;;;42.90;28.17;;;10.90;83.20;;;;;;10406172;28;20260;-85
2021/12/05 19:52:20;;;;;;;51.67;30.27;;;10.00;99.90;;;;;;10397944;28;20764;-85
2021/12/05 19:57:23;;;;;;;54.90;34.70;;;10.90;97.00;;;;;;10374393;28;20262;-85
2021/12/05 20:02:25;;;;;;;50.57;30.27;;;10.80;90.60;;;;;;10399723;28;20292;-84
2021/12/05 20:07:29;;;;;;;44.40;28.60;;;10.10;99.60;;;;;;10387995;28;20258;-86
2021/12/05 20:12:32;;;;;;;44.80;28.97;;;11.30;99.90;;;;;;10388778;28;20320;-85
2021/12/05 20:17:35;;;;;;;55.53;33.70;;;11.50;93.90;;;;;;10403867;28;20298;-85
2021/12/05 20:22:39;;;;;;;38.37;26.27;;;11.00;97.50;;;;;;10395107;28;20270;-85
2021/12/05 20:27:43;;;;;;;51.30;30.53;;;9.70;99.90;;;;;;10389590;28;20612;-80
2021/12/05 20:32:47;;;;;;;43.63;27.20;;;10.50;99.90;;;;;;10371534;28;20657;-82
2021/12/05 20:37:56;;;;;;;50.97;31.53;;;11.20;99.90;;;;;;10386739;28;20258;-82
2021/12/05 20:42:59;;;;;;;37.27;25.67;;;11.40;92.70;;;;;;10404187;28;20737;-82
2021/12/05 20:48:03;;;;;;;37.50;25.37;;;10.40;99.90;;;;;;10382541;28;20237;-81
2021/12/05 20:53:08;;;;;;;46.93;29.73;;;10.50;99.90;;;;;;10387356;28;20698;-81
2021/12/05 20:58:14;;;;;;;43.47;27.63;;;11.20;99.90;;;;;;10386376;28;20260;-82
2021/12/05 21:03:17;;;;;;;43.17;25.73;;;11.00;93.50;;;;;;10391632;28;20609;-81
2021/12/05 21:08:20;;;;;;;40.83;24.93;;;10.10;99.90;;;;;;10396654;28;20229;-81
2021/12/05 21:13:24;;;;;;;38.37;24.40;;;10.90;99.90;;;;;;10383822;28;20226;-81
2021/12/05 21:18:28;;;;;;;56.73;34.90;;;10.70;99.90;;;;;;10408183;28;20253;-82
2021/12/05 21:23:32;;;;;;;56.60;35.07;;;11.00;99.90;;;;;;10396597;28;21156;-81
2021/12/05 21:28:36;;;;;;;51.37;32.10;;;10.80;95.50;;;;;;10378045;28;20304;-80
2021/12/05 21:33:41;;;;;;;39.07;24.03;;;9.80;95.80;;;;;;10386322;28;20252;-81
2021/12/05 21:38:44;;;;;;;46.17;29.50;;;9.70;99.90;;;;;;10362627;28;20246;-81
2021/12/05 21:43:49;;;;;;;67.57;38.73;;;9.90;99.90;;;;;;10409710;28;20290;-81
2021/12/05 21:48:52;;;;;;;43.10;25.77;;;8.60;87.50;;;;;;10411065;28;20231;-81
2021/12/05 21:53:55;;;;;;;33.97;23.27;;;10.50;99.90;;;;;;10374373;28;20222;-81
2021/12/05 21:58:58;;;;;;;35.70;22.73;;;11.10;99.90;;;;;;10401269;28;20304;-82
2021/12/05 22:04:01;;;;;;;34.93;23.83;;;10.50;99.90;;;;;;10390096;28;20299;-81
2021/12/05 22:09:04;;;;;;;38.97;26.27;;;10.50;99.90;;;;;;10386398;28;20237;-81
2021/12/05 22:14:06;;;;;;;38.57;24.80;;;11.00;99.90;;;;;;10380074;28;20225;-82
2021/12/05 22:19:11;;;;;;;32.00;22.17;;;11.40;99.90;;;;;;10367623;28;20728;-82
2021/12/05 22:24:16;;;;;;;37.63;25.83;;;11.30;99.90;;;;;;10384161;28;20328;-81
2021/12/05 22:29:19;;;;;;;43.63;28.10;;;8.90;99.90;;;;;;10403872;28;20243;-81
2021/12/05 22:34:24;;;;;;;50.47;30.07;;;6.60;99.90;;;;;;10399377;28;20239;-80
2021/12/05 22:39:26;;;;;;;44.53;26.60;;;6.30;99.90;;;;;;10375305;28;20717;-80
2021/12/05 22:44:29;;;;;;;62.23;33.77;;;7.10;99.90;;;;;;10403316;28;20236;-81
2021/12/05 22:49:32;;;;;;;55.87;31.23;;;5.00;95.80;;;;;;10396110;28;20829;-81
2021/12/05 22:54:35;;;;;;;42.93;26.57;;;6.50;99.90;;;;;;10379342;28;20223;-81
2021/12/05 22:59:37;;;;;;;34.87;22.63;;;7.70;99.90;;;;;;10375684;28;20312;-81
2021/12/05 23:04:42;;;;;;;41.83;26.63;;;7.90;99.90;;;;;;10374752;28;20247;-81
2021/12/05 23:09:45;;;;;;;36.40;22.80;;;8.20;99.90;;;;;;10393018;28;20232;-81
2021/12/05 23:14:47;;;;;;;53.03;30.17;;;8.30;99.90;;;;;;10374291;28;20230;-81
2021/12/05 23:19:55;;;;;;;45.43;28.23;;;7.20;99.90;;;;;;10407971;28;20267;-81
2021/12/05 23:24:58;;;;;;;50.37;30.50;;;7.10;99.90;;;;;;10407436;28;20259;-81
2021/12/05 23:30:07;;;;;;;33.00;22.47;;;8.30;99.90;;;;;;10407253;28;20251;-81
2021/12/05 23:35:11;;;;;;;40.57;25.83;;;6.30;99.90;;;;;;10407547;28;20253;-81
2021/12/05 23:40:14;;;;;;;53.83;31.37;;;5.60;99.90;;;;;;10407506;28;20255;-81
2021/12/05 23:45:17;;;;;;;50.20;30.33;;;5.50;99.90;;;;;;10406832;28;20756;-81
2021/12/05 23:50:26;;;;;;;51.00;29.87;;;6.60;99.90;;;;;;10407080;28;20309;-81
2021/12/05 23:55:30;;;;;;;44.40;26.63;;;7.30;99.90;;;;;;10390337;28;20654;-81
